高松空港の過去48時間の天気

高松空港 (Takamatsu)

現在時刻: 8/19 02:17 JST (8/18 17:17 UTC) 以下の時間は現地時間です。

過去48時間のMETAR気象情報
時間 風向 風速(m/s) 視程 気温(℃) 湿度(%) 気圧(hPa) 天気現象
18 21:00 3 10km以上 24 94 1008
18 20:00 南西 3 10km以上 25 89 1008
18 19:00 西 4 10km以上 26 79 1008
18 18:00 西 4 10km以上 28 70 1007
18 17:00 西南西 5 10km以上 30 59 1007
18 16:00 西 5 10km以上 31 59 1006
18 15:00 西 5 10km以上 31 55 1007
18 14:00 西北西 3 10km以上 30 62 1007
18 13:00 西北西 5 10km以上 30 62 1007
18 12:00 西 4 10km以上 29 70 1007
18 11:00 西 5 10km以上 27 79 1008
18 10:00 西 6 10km以上 26 84 1008
18 09:00 西 4 10km以上 24 89 1008 周辺でしゅう雨
18 08:00 西南西 5 10km以上 23 94 1008 周辺でしゅう雨
18 07:06 西南西 4 7000m 22 100 1009 弱いしゅう雨
18 07:00 西南西 4 4500m 22 100 1009 しゅう雨 もや
18 06:50 南西 3 3500m 22 100 1009 しゅう雨 もや
18 06:27 西南西 4 4500m 22 100 1010 弱いしゅう雨 もや
18 06:20 西南西 4 10km以上 22 100 1009 弱いしゅう雨
17 21:00 不定 1 10km以上 24 100 1008
17 20:10 東南東 3 10km以上 25 94 1009 弱い雷雨
17 20:00 南東 3 5000m 25 94 1009 雷雨
17 19:48 6 3000m 25 94 1009 強い雷雨
17 19:13 東北東 2 10km以上 25 94 1009 雷 周辺でしゅう雨
17 19:00 北東 2 10km以上 26 89 1009 周辺でしゅう雨
17 18:00 2 10km以上 27 89 1008
17 17:00 不定 1 10km以上 27 89 1008 周辺でしゅう雨
17 16:00 2 10km以上 27 84 1009
17 15:00 北東 2 10km以上 27 94 1008 弱い雷雨
17 14:36 3 10km以上 28 89 1008 弱い雷雨
17 14:00 北東 3 10km以上 28 84 1009
17 13:00 2 10km以上 28 79 1009
17 12:00 南南東 2 10km以上 27 89 1010 周辺でしゅう雨
17 11:00 北西 3 10km以上 26 94 1010 弱いしゅう雨
17 10:00 2 10km以上 28 89 1011 周辺でしゅう雨
17 09:00 東北東 2 10km以上 27 94 1010 周辺でしゅう雨
17 08:00 不定 1 10km以上 26 94 1010
17 07:00 不定 1 10km以上 26 94 1010 周辺でしゅう雨
17 06:20 東南東 1 10km以上 25 94 1010
RJOT 181200Z 18005KT CAVOK 24/23 Q1008
RJOT 181100Z 22005KT 9999 FEW030 25/23 Q1008
RJOT 181000Z 26008KT 9999 FEW030 26/22 Q1008
RJOT 180900Z 26008KT 9999 FEW035 28/22 Q1007
RJOT 180800Z 24009KT 9999 FEW035 30/21 Q1007
RJOT 180700Z 27009KT 240V300 9999 FEW035 31/22 Q1006
RJOT 180600Z 26009KT 9999 FEW035 31/21 Q1007
RJOT 180500Z 29006KT 240V350 9999 FEW030 30/22 Q1007
RJOT 180400Z 29010KT 9999 FEW025 30/22 Q1007
RJOT 180300Z 28007KT 240V320 9999 FEW025 29/23 Q1007
RJOT 180200Z 27010KT 9999 FEW025 27/23 Q1008
RJOT 180100Z 26011KT 9999 FEW015 SCT040 BKN170 26/23 Q1008
RJOT 180000Z 28007KT 9999 VCSH FEW005 SCT120 BKN150 24/22 Q1008
RJOT 172300Z 25010KT 9999 VCSH FEW001 SCT060 BKN120 23/22 Q1008
RJOT 172206Z 24007KT 7000 -SHRA FEW000 SCT005 BKN010 22/22 Q1009 RMK 1ST000 3ST005 5ST010 A2980
RJOT 172200Z 24007KT 4500 SHRA BR FEW000 SCT004 BKN008 22/22 Q1009
RJOT 172150Z 23006KT 180V270 3500 SHRA BR FEW000 SCT004 BKN008 22/22 Q1009 RMK 1ST000 3ST004 5ST008 A2981
RJOT 172127Z 25007KT 4500 -SHRA BR FEW000 SCT005 BKN010 22/22 Q1010 RMK 1ST000 3ST005 5ST010 A2982
RJOT 172120Z 24007KT 9999 -SHRA FEW001 SCT006 BKN015 22/22 Q1009 RMK 1ST001 3ST006 5CU015 A2982
RJOT 171200Z VRB02KT 9999 FEW003 SCT120 BKN/// 24/24 Q1008
RJOT 171110Z 11005KT 9999 -TSRA FEW003 SCT015 FEW020CB BKN100 25/24 Q1009 RMK 1ST003 3CU015 1CB020 5AC100 A2980 FBL TS 10KM E MOV NE CB 20KM W MOV NE
RJOT 171100Z 14005KT 080V230 5000 R26/1400VP2000U TSRA FEW003 SCT015 FEW020CB BKN050 25/24 Q1009
RJOT 171048Z 35011KT 310V020 3000 R26/1100VP2000D +TSRA FEW003 SCT015 SCT020CB BKN050 25/24 Q1009 RMK 1ST003 3CU015 3CB020 5SC050 A2981 HVY TS OHD MOV NE CB 15KM NE AND 25KM N MOV NE RI++
RJOT 171013Z 06003KT 020V090 9999 TS VCSH FEW005 SCT020 FEW025CB BKN080 25/24 Q1009 RMK 1ST005 3CU020 2CB025 5AC080 A2980 FBL TS 20KM W MOV NE CB 15KM N MOV NE
RJOT 171000Z 04003KT 360V080 9999 VCSH FEW005 SCT020 FEW025CB BKN080 26/24 Q1009
RJOT 170900Z 08004KT 9999 FEW005 SCT080 BKN/// 27/25 Q1008
RJOT 170800Z VRB02KT 9999 VCSH FEW005 SCT015 FEW020CB BKN100 27/25 Q1008
RJOT 170700Z 36004KT 9999 FEW005 SCT015 FEW020CB BKN025 27/24 Q1009
RJOT 170600Z 05004KT 360V100 9999 -TSRA FEW005 SCT015 FEW020CB BKN025 27/26 Q1008
RJOT 170536Z 08005KT 050V110 9999 -TSRA FEW005 SCT015 FEW020CB BKN025 28/26 Q1008 RMK 1ST005 3CU015 1CB020 5CU025 A2979 FBL TS 15KM SW MOV NE
RJOT 170500Z 04005KT 010V080 9999 FEW005 SCT050 BKN180 28/25 Q1009
RJOT 170400Z 35003KT 9999 FEW005 SCT120 BKN/// 28/24 Q1009
RJOT 170300Z 15003KT 090V210 9999 VCSH FEW002 FEW020CB SCT025 BKN070 27/25 Q1010
RJOT 170200Z 31006KT 270V340 9999 -SHRA FEW002 SCT010 BKN030 26/25 Q1010
RJOT 170100Z 01003KT 310V060 9999 VCSH FEW002 SCT015 BKN030 28/26 Q1011
RJOT 170000Z 06004KT 010V080 9999 VCSH FEW002 FEW025CB SCT130 BKN/// 27/26 Q1010
RJOT 162300Z VRB01KT 9999 FEW002 FEW025CB SCT080 BKN120 26/25 Q1010
RJOT 162200Z VRB02KT 9999 VCSH FEW004 SCT050 BKN080 26/25 Q1010
RJOT 162120Z 12002KT 9999 FEW002 SCT050 BKN090 25/24 Q1010 RMK 1ST002 3SC050 6AC090 A2983